Time;durP1;ratioP1;P1;durP2;ratioP2;P2;SDS_P1;SDS_P2;PMS_P1;PMS_P2;Temp;Humidity;BMP_temperature;BMP_pressure;BME280_temperature;BME280_humidity;BME280_pressure;Samples;Min_cycle;Max_cycle;Signal;HPM_P1;HPM_P2
2021/12/06 00:01:10;;;;;;;19.30;10.52;;;1.30;99.90;;;;;;5006909;28;20493;-73
2021/12/06 00:03:45;;;;;;;18.83;11.65;;;1.30;99.90;;;;;;5002418;28;20085;-73
2021/12/06 00:06:12;;;;;;;21.20;11.55;;;1.30;99.90;;;;;;5024333;28;20049;-73
2021/12/06 00:08:38;;;;;;;20.23;11.38;;;1.40;99.90;;;;;;5019762;28;20042;-73
2021/12/06 00:11:08;;;;;;;22.35;12.50;;;1.40;99.90;;;;;;5007567;28;20071;-72
2021/12/06 00:13:39;;;;;;;21.27;12.52;;;1.40;99.90;;;;;;5005236;28;20757;-73
2021/12/06 00:16:09;;;;;;;22.13;12.02;;;1.40;99.90;;;;;;5008530;28;20061;-73
2021/12/06 00:18:36;;;;;;;22.90;11.82;;;1.40;99.90;;;;;;5003018;28;20056;-73
2021/12/06 00:21:03;;;;;;;22.65;12.15;;;1.30;99.90;;;;;;5003970;28;20086;-73
2021/12/06 00:23:29;;;;;;;19.65;11.50;;;1.30;99.90;;;;;;5025327;28;20084;-73
2021/12/06 00:25:55;;;;;;;;;;;1.30;99.90;;;;;;5022398;28;20031;-74
2021/12/06 00:28:21;;;;;;;21.08;11.13;;;1.20;99.90;;;;;;5006562;28;19925;-74
2021/12/06 00:30:47;;;;;;;;;;;1.10;99.90;;;;;;5008643;28;20048;-74
2021/12/06 00:33:15;;;;;;;20.92;11.77;;;1.00;99.90;;;;;;5005659;28;20297;-74
2021/12/06 00:35:41;;;;;;;20.70;11.55;;;1.00;99.90;;;;;;5005114;28;20037;-74
2021/12/06 00:38:07;;;;;;;;;;;1.00;99.90;;;;;;5023374;28;20061;-74
2021/12/06 00:40:35;;;;;;;20.55;11.30;;;0.90;99.90;;;;;;5024092;28;20000;-74
2021/12/06 00:43:03;;;;;;;18.10;10.27;;;0.90;99.90;;;;;;5003819;28;20054;-74
2021/12/06 00:45:29;;;;;;;18.25;10.60;;;0.90;99.90;;;;;;5026555;28;20053;-74
2021/12/06 00:47:55;;;;;;;;;;;0.90;99.90;;;;;;5004266;28;20501;-74
2021/12/06 00:50:23;;;;;;;17.95;10.75;;;0.90;99.90;;;;;;5006263;28;20012;-74
2021/12/06 00:52:50;;;;;;;20.23;11.05;;;0.90;99.90;;;;;;5003234;28;20097;-74
2021/12/06 00:55:16;;;;;;;21.23;11.68;;;0.80;99.90;;;;;;5005988;28;20049;-73
2021/12/06 00:57:42;;;;;;;22.90;11.70;;;0.80;99.90;;;;;;5022000;28;20132;-73
2021/12/06 01:00:17;;;;;;;21.00;11.60;;;0.80;99.90;;;;;;5021300;28;20065;-74
2021/12/06 01:02:43;;;;;;;20.13;11.85;;;0.70;99.90;;;;;;5006377;28;20120;-73
2021/12/06 01:05:08;;;;;;;;;;;0.70;99.90;;;;;;5021836;28;20045;-74
2021/12/06 01:07:37;;;;;;;20.10;11.70;;;0.70;99.90;;;;;;5005185;28;20378;-74
2021/12/06 01:10:04;;;;;;;;;;;0.70;99.90;;;;;;5005404;28;20040;-74
2021/12/06 01:12:29;;;;;;;23.02;12.73;;;0.70;99.90;;;;;;5022285;28;20069;-74
2021/12/06 01:14:55;;;;;;;;;;;0.70;99.90;;;;;;5005302;28;20121;-74
2021/12/06 01:17:24;;;;;;;21.20;11.82;;;0.70;99.90;;;;;;5002647;28;19921;-73
2021/12/06 01:19:50;;;;;;;21.52;12.35;;;0.60;99.90;;;;;;5006511;28;20057;-73
2021/12/06 01:24:47;;;;;;;20.38;11.32;;;0.70;99.90;;;;;;5023453;28;19921;-74
2021/12/06 01:30:05;;;;;;;22.75;12.27;;;0.60;99.90;;;;;;5016694;28;20104;-73
2021/12/06 01:39:11;;;;;;;;;;;0.70;99.90;;;;;;5022141;28;20145;-73
2021/12/06 01:40:44;;;;;;;22.33;12.32;;;0.70;99.90;;;;;;4999283;28;20049;-73
2021/12/06 01:43:09;;;;;;;;;;;0.60;99.90;;;;;;5006138;28;20461;-73
2021/12/06 01:45:35;;;;;;;23.83;12.95;;;0.70;99.90;;;;;;5004116;28;19967;-73
2021/12/06 01:48:00;;;;;;;;;;;0.70;99.90;;;;;;5004073;28;20140;-73
2021/12/06 01:50:28;;;;;;;25.95;13.68;;;0.80;99.90;;;;;;5021804;28;19921;-73
2021/12/06 01:52:59;;;;;;;26.40;13.38;;;0.80;99.90;;;;;;5004231;28;20046;-74
2021/12/06 01:55:31;;;;;;;24.40;13.48;;;0.90;99.90;;;;;;5004173;28;20037;-74
2021/12/06 01:58:02;;;;;;;23.65;13.45;;;1.00;99.90;;;;;;5004933;28;20068;-74
2021/12/06 02:00:46;;;;;;;26.30;13.55;;;2.60;99.90;;;;;;5023560;28;20048;-74
2021/12/06 02:03:12;;;;;;;24.17;12.95;;;1.10;99.90;;;;;;4998887;28;20046;-73
2021/12/06 02:05:40;;;;;;;27.92;14.45;;;1.10;99.90;;;;;;5024071;28;20069;-73
2021/12/06 02:08:07;;;;;;;30.98;15.85;;;1.20;99.90;;;;;;5002411;28;20041;-73
2021/12/06 02:10:34;;;;;;;28.95;14.70;;;1.20;99.90;;;;;;5005378;28;20061;-73
2021/12/06 02:13:00;;;;;;;28.77;15.05;;;1.30;99.90;;;;;;5003673;28;20054;-73
2021/12/06 02:15:37;;;;;;;;;;;1.30;99.90;;;;;;5006640;28;20513;-73
2021/12/06 02:18:14;;;;;;;26.20;13.40;;;1.30;99.90;;;;;;4998518;28;19921;-73
2021/12/06 02:21:04;;;;;;;28.38;14.05;;;1.40;99.90;;;;;;5022542;28;20053;-74
2021/12/06 02:23:29;;;;;;;25.58;13.82;;;1.50;99.90;;;;;;5004497;28;20060;-74
2021/12/06 02:25:55;;;;;;;25.50;13.27;;;1.50;99.90;;;;;;5021572;28;20092;-73
2021/12/06 02:28:20;;;;;;;;;;;1.50;99.90;;;;;;5021613;28;20120;-74
2021/12/06 02:30:46;;;;;;;26.48;13.32;;;1.60;99.90;;;;;;5025109;28;19917;-73
2021/12/06 02:33:11;;;;;;;;;;;1.60;99.90;;;;;;5021582;28;20125;-74
2021/12/06 02:35:37;;;;;;;26.48;13.00;;;1.60;99.90;;;;;;5005666;28;20387;-74
2021/12/06 02:38:07;;;;;;;;;;;1.70;99.90;;;;;;5003273;28;20049;-74
2021/12/06 02:40:34;;;;;;;24.85;13.20;;;1.70;99.90;;;;;;4998556;28;19925;-74
2021/12/06 02:43:03;;;;;;;20.73;11.20;;;1.70;99.90;;;;;;5004937;28;20489;-73
2021/12/06 02:45:31;;;;;;;19.30;10.65;;;1.70;99.90;;;;;;5005279;28;20151;-74
2021/12/06 02:48:00;;;;;;;23.23;11.98;;;1.80;99.90;;;;;;5024107;28;20392;-73
2021/12/06 02:50:33;;;;;;;22.35;12.15;;;1.80;99.90;;;;;;5002039;28;20097;-74
2021/12/06 02:53:01;;;;;;;23.75;12.25;;;1.80;99.90;;;;;;5005667;28;20409;-73
2021/12/06 02:55:34;;;;;;;22.42;12.35;;;1.80;99.90;;;;;;5019989;28;20157;-73
2021/12/06 02:58:43;;;;;;;24.83;13.20;;;1.80;99.90;;;;;;5006328;28;20354;-73
2021/12/06 03:01:12;;;;;;;22.65;11.95;;;1.90;99.90;;;;;;5022195;28;20077;-73
2021/12/06 03:03:37;;;;;;;22.30;11.48;;;1.90;99.90;;;;;;5022140;28;20046;-73
2021/12/06 03:06:03;;;;;;;;;;;1.90;99.90;;;;;;5002825;28;20065;-73
2021/12/06 03:08:52;;;;;;;22.25;11.55;;;1.90;99.90;;;;;;5005760;28;19925;-73
2021/12/06 03:11:24;;;;;;;24.33;12.63;;;1.90;99.90;;;;;;5002560;28;20075;-73
2021/12/06 03:13:51;;;;;;;28.13;14.25;;;2.00;99.90;;;;;;5003268;28;20126;-74
2021/12/06 03:16:17;;;;;;;25.42;12.93;;;2.00;99.90;;;;;;5007046;28;20037;-73
2021/12/06 03:18:46;;;;;;;;;;;2.00;99.90;;;;;;5021513;28;20042;-74
2021/12/06 03:21:14;;;;;;;27.23;14.50;;;2.00;99.90;;;;;;5003546;28;19921;-74
2021/12/06 03:23:40;;;;;;;26.90;13.35;;;2.10;99.90;;;;;;5020044;28;20123;-74
2021/12/06 03:26:09;;;;;;;29.40;13.70;;;2.10;99.90;;;;;;5022125;28;20179;-74
2021/12/06 03:28:41;;;;;;;24.60;12.98;;;2.10;99.90;;;;;;5020571;28;20541;-74
2021/12/06 03:31:07;;;;;;;26.13;13.35;;;2.10;99.90;;;;;;5021959;28;20053;-73
2021/12/06 03:33:37;;;;;;;;;;;2.10;99.90;;;;;;5026150;28;20045;-74
2021/12/06 03:36:08;;;;;;;24.45;12.85;;;2.10;99.90;;;;;;5006275;28;19929;-74
2021/12/06 03:38:38;;;;;;;30.13;15.13;;;2.10;99.90;;;;;;5025097;28;20441;-74
2021/12/06 03:41:06;;;;;;;27.80;14.15;;;2.10;99.90;;;;;;5023640;28;20371;-72
2021/12/06 03:43:32;;;;;;;25.88;13.70;;;2.10;99.90;;;;;;5008035;28;20049;-73
2021/12/06 03:45:58;;;;;;;28.63;13.98;;;2.10;99.90;;;;;;5005975;28;20042;-73
2021/12/06 03:48:24;;;;;;;;;;;2.10;99.90;;;;;;5009090;28;20046;-74
2021/12/06 03:50:49;;;;;;;28.52;13.60;;;2.10;99.90;;;;;;5005411;28;19924;-75
2021/12/06 03:53:15;;;;;;;;;;;2.10;99.90;;;;;;5006521;28;20413;-73
2021/12/06 03:55:40;;;;;;;30.80;15.07;;;2.20;99.90;;;;;;4997592;28;20016;-74
2021/12/06 03:58:09;;;;;;;;;;;2.20;99.90;;;;;;5024981;28;20065;-74
2021/12/06 04:00:35;;;;;;;28.80;14.23;;;2.20;99.90;;;;;;5004369;28;19921;-74
2021/12/06 04:03:01;;;;;;;26.63;14.23;;;2.20;99.90;;;;;;5023250;28;20045;-75
2021/12/06 04:05:28;;;;;;;;;;;2.20;99.90;;;;;;5007647;28;20045;-75
2021/12/06 04:07:54;;;;;;;30.60;15.50;;;2.20;99.90;;;;;;5002546;28;20016;-73
2021/12/06 04:10:20;;;;;;;;;;;2.20;99.90;;;;;;5001453;28;20120;-74
2021/12/06 04:12:45;;;;;;;28.63;14.80;;;2.20;99.90;;;;;;5021970;28;20350;-75
2021/12/06 04:15:13;;;;;;;;;;;2.30;99.90;;;;;;5005559;28;20037;-75
2021/12/06 04:17:40;;;;;;;32.22;15.43;;;2.30;99.90;;;;;;5008662;28;19921;-75
2021/12/06 04:20:11;;;;;;;31.88;16.02;;;2.20;99.90;;;;;;5023845;28;20069;-74
2021/12/06 04:22:37;;;;;;;34.13;16.65;;;2.30;99.90;;;;;;5023828;28;20046;-75
2021/12/06 04:25:07;;;;;;;30.15;15.05;;;2.30;99.90;;;;;;5006685;28;20100;-75
2021/12/06 04:27:35;;;;;;;30.98;15.43;;;2.30;99.90;;;;;;5023111;28;20057;-74
2021/12/06 04:30:05;;;;;;;35.40;16.48;;;2.30;99.90;;;;;;5006008;28;20050;-75
2021/12/06 04:32:31;;;;;;;34.05;16.77;;;2.20;99.90;;;;;;5007328;28;20061;-74
2021/12/06 04:34:56;;;;;;;;;;;2.20;99.90;;;;;;5006729;28;20029;-74
2021/12/06 04:37:22;;;;;;;33.78;15.63;;;2.20;99.90;;;;;;5004753;28;19976;-74
2021/12/06 04:39:48;;;;;;;;;;;2.20;99.90;;;;;;5008025;28;20045;-74
2021/12/06 04:42:14;;;;;;;34.65;16.15;;;2.20;99.90;;;;;;5003211;28;19921;-74
2021/12/06 04:44:40;;;;;;;35.25;16.83;;;2.20;99.90;;;;;;5025299;28;20037;-75
2021/12/06 04:47:06;;;;;;;;;;;2.20;99.90;;;;;;5008930;28;20536;-75
2021/12/06 04:49:32;;;;;;;38.88;17.40;;;2.10;99.90;;;;;;5022028;28;20026;-74
2021/12/06 04:51:58;;;;;;;;;;;2.20;99.90;;;;;;5023766;28;20173;-74
2021/12/06 04:54:29;;;;;;;35.60;16.10;;;2.20;99.90;;;;;;5023509;28;19921;-74
2021/12/06 04:57:08;;;;;;;38.13;16.98;;;2.20;99.90;;;;;;5005355;28;20133;-74
2021/12/06 04:59:39;;;;;;;40.97;18.45;;;2.20;99.90;;;;;;5004732;28;20046;-74
2021/12/06 05:02:18;;;;;;;40.47;18.17;;;2.20;99.90;;;;;;5024619;28;20038;-74
2021/12/06 05:04:47;;;;;;;41.92;17.83;;;2.20;99.90;;;;;;5018411;28;20046;-74
2021/12/06 05:07:18;;;;;;;41.40;17.50;;;2.20;99.90;;;;;;5024087;28;20046;-74
2021/12/06 05:09:45;;;;;;;37.15;16.77;;;2.00;99.90;;;;;;5003469;28;20113;-74
2021/12/06 05:12:16;;;;;;;37.83;17.65;;;2.20;99.90;;;;;;5004126;28;20125;-74
2021/12/06 05:14:42;;;;;;;37.95;17.02;;;2.20;99.90;;;;;;5018476;28;20165;-74
2021/12/06 05:17:08;;;;;;;;;;;2.20;99.90;;;;;;5007226;28;20549;-75
2021/12/06 05:19:34;;;;;;;36.10;16.70;;;2.20;99.90;;;;;;5003441;28;20028;-74
2021/12/06 05:22:00;;;;;;;34.90;16.70;;;2.30;99.90;;;;;;5025715;28;21436;-74
2021/12/06 05:24:26;;;;;;;;;;;2.30;99.90;;;;;;5024659;28;20049;-73
2021/12/06 05:26:55;;;;;;;41.40;17.83;;;2.30;99.90;;;;;;5024591;28;19920;-74
2021/12/06 05:29:26;;;;;;;35.17;15.60;;;2.30;99.90;;;;;;5027095;28;20045;-75
2021/12/06 05:31:57;;;;;;;37.38;16.23;;;2.30;99.90;;;;;;5042092;28;20055;-75
2021/12/06 05:34:32;;;;;;;41.40;16.30;;;2.40;99.90;;;;;;5042107;28;20559;-75
2021/12/06 05:36:59;;;;;;;35.65;15.68;;;2.40;99.90;;;;;;5044599;28;20103;-77
2021/12/06 05:39:30;;;;;;;37.40;16.05;;;2.40;99.90;;;;;;5023103;28;20044;-79
2021/12/06 05:42:01;;;;;;;37.67;14.55;;;2.40;99.90;;;;;;5025703;28;20485;-79
2021/12/06 05:44:31;;;;;;;36.35;15.98;;;1.90;99.90;;;;;;5019949;28;20056;-75
2021/12/06 05:47:05;;;;;;;36.25;16.40;;;2.40;99.90;;;;;;5018625;28;20068;-77
2021/12/06 05:56:05;;;;;;;32.83;15.25;;;2.40;99.90;;;;;;5072116;23;20053;-76
2021/12/06 06:02:06;;;;;;;34.85;14.88;;;3.60;99.90;;;;;;5018201;28;20041;-76
2021/12/06 06:08:13;;;;;;;34.72;16.17;;;1.50;99.90;;;;;;5022387;28;20074;-75
2021/12/06 06:10:50;;;;;;;39.50;16.83;;;2.30;99.90;;;;;;5023053;28;20068;-76
2021/12/06 06:13:47;;;;;;;37.13;15.40;;;3.30;99.90;;;;;;5003707;28;20077;-76
2021/12/06 06:16:52;;;;;;;36.00;16.57;;;3.40;99.90;;;;;;5002712;28;20390;-77
2021/12/06 06:20:20;;;;;;;36.17;16.20;;;2.30;99.90;;;;;;5000485;28;20839;-77
2021/12/06 06:26:42;;;;;;;40.72;17.27;;;3.80;99.90;;;;;;5001780;28;20457;-77
2021/12/06 06:37:04;;;;;;;32.70;14.82;;;3.50;99.90;;;;;;5149555;22;20106;-78
2021/12/06 07:02:06;;;;;;;35.53;14.60;;;2.70;99.90;;;;;;4978067;28;20042;-76
2021/12/06 07:04:35;;;;;;;29.20;14.13;;;2.60;99.90;;;;;;4955900;28;20035;-78
2021/12/06 07:07:02;;;;;;;30.98;14.27;;;2.60;99.90;;;;;;4949301;28;20046;-76
2021/12/06 07:09:29;;;;;;;34.28;14.35;;;2.80;99.90;;;;;;4984099;28;20039;-80
2021/12/06 07:11:55;;;;;;;33.35;14.43;;;4.50;99.90;;;;;;4983172;28;20055;-83
2021/12/06 07:14:23;;;;;;;31.50;14.45;;;2.70;99.90;;;;;;4986276;28;20039;-77
2021/12/06 07:16:49;;;;;;;;;;;2.70;99.90;;;;;;4995155;28;20045;-81
2021/12/06 07:19:15;;;;;;;33.40;14.40;;;2.70;99.90;;;;;;4983957;28;19989;-78
2021/12/06 07:21:40;;;;;;;;;;;2.80;99.90;;;;;;4989965;28;20085;-79
2021/12/06 07:24:06;;;;;;;35.58;14.60;;;2.70;99.90;;;;;;4963127;28;19929;-76
2021/12/06 07:26:35;;;;;;;;;;;2.70;99.90;;;;;;4968343;28;20052;-76
2021/12/06 07:29:01;;;;;;;33.95;14.40;;;2.60;99.90;;;;;;4970806;28;19926;-74
2021/12/06 07:31:26;;;;;;;;;;;2.60;99.90;;;;;;4968235;28;20090;-80
2021/12/06 07:33:52;;;;;;;35.35;15.80;;;2.70;99.90;;;;;;4967445;28;19925;-78
2021/12/06 07:36:20;;;;;;;;;;;2.80;99.90;;;;;;4973264;28;20042;-76
2021/12/06 07:38:50;;;;;;;33.55;15.30;;;2.70;99.90;;;;;;4988235;28;20428;-75
2021/12/06 07:41:18;;;;;;;29.30;14.82;;;3.60;99.90;;;;;;4963971;28;20054;-77
2021/12/06 07:43:44;;;;;;;34.38;15.00;;;2.70;99.90;;;;;;4963624;28;20091;-77
2021/12/06 07:46:09;;;;;;;;;;;2.70;99.90;;;;;;4992052;28;20415;-77
2021/12/06 07:48:36;;;;;;;33.40;16.27;;;2.70;99.90;;;;;;4996129;28;20052;-76
2021/12/06 07:51:02;;;;;;;35.83;15.90;;;2.60;99.90;;;;;;4970928;28;20038;-75
2021/12/06 07:53:32;;;;;;;31.58;14.27;;;2.80;99.90;;;;;;4993438;28;20038;-74
2021/12/06 07:55:58;;;;;;;32.95;14.13;;;2.80;99.90;;;;;;4998855;28;20061;-74
2021/12/06 07:58:24;;;;;;;;;;;2.70;99.90;;;;;;4967711;28;20034;-74
2021/12/06 08:00:55;;;;;;;33.75;14.40;;;2.70;99.90;;;;;;4969994;28;19922;-71
2021/12/06 08:03:23;;;;;;;33.05;14.15;;;2.90;99.90;;;;;;4970684;28;20057;-71
2021/12/06 08:05:50;;;;;;;37.30;14.82;;;2.70;99.90;;;;;;4992295;28;20050;-71
2021/12/06 08:08:23;;;;;;;33.45;13.85;;;2.80;99.90;;;;;;4967323;28;20088;-72
2021/12/06 08:10:55;;;;;;;29.55;14.05;;;2.80;99.90;;;;;;4967109;28;20058;-72
2021/12/06 08:13:24;;;;;;;32.58;15.30;;;2.30;99.90;;;;;;4966424;28;20038;-72
2021/12/06 08:15:53;;;;;;;31.13;14.15;;;2.70;99.90;;;;;;4993175;28;20398;-72
2021/12/06 08:18:19;;;;;;;39.03;15.05;;;2.70;99.90;;;;;;4967426;28;20538;-72
2021/12/06 08:20:45;;;;;;;;;;;2.80;99.90;;;;;;4966897;28;20091;-72
2021/12/06 08:23:12;;;;;;;29.60;12.35;;;2.80;99.90;;;;;;4968073;28;19929;-72
2021/12/06 08:25:39;;;;;;;36.83;14.48;;;2.80;99.90;;;;;;5000878;28;20046;-73
2021/12/06 08:28:05;;;;;;;34.92;13.90;;;2.90;99.90;;;;;;4968825;28;20046;-72
2021/12/06 08:30:31;;;;;;;;;;;2.80;99.90;;;;;;4966474;28;20047;-72
2021/12/06 08:33:00;;;;;;;32.10;12.77;;;3.00;99.90;;;;;;4965738;28;19932;-72
2021/12/06 08:35:26;;;;;;;31.48;14.73;;;3.00;99.90;;;;;;4962994;28;20053;-72
2021/12/06 08:37:54;;;;;;;30.52;13.65;;;2.90;99.90;;;;;;4965540;28;20058;-72
2021/12/06 08:40:23;;;;;;;31.45;12.68;;;3.00;99.90;;;;;;4967150;28;20042;-71
2021/12/06 08:42:49;;;;;;;29.95;12.15;;;3.00;99.90;;;;;;4963750;28;20545;-72
2021/12/06 08:45:15;;;;;;;;;;;3.10;99.90;;;;;;4982180;28;20035;-71
2021/12/06 08:47:42;;;;;;;33.40;14.55;;;3.10;99.90;;;;;;4982961;28;19976;-71
2021/12/06 08:50:17;;;;;;;62.63;33.80;;;3.10;99.90;;;;;;4965538;28;20042;-72
2021/12/06 08:52:43;;;;;;;45.22;18.95;;;3.00;99.90;;;;;;4984461;28;20054;-71
2021/12/06 08:55:09;;;;;;;;;;;3.00;99.90;;;;;;4966725;28;20046;-74
2021/12/06 08:57:35;;;;;;;76.60;25.27;;;3.00;99.90;;;;;;4971672;28;19922;-73
2021/12/06 09:00:03;;;;;;;87.85;35.85;;;3.00;99.90;;;;;;4964961;28;20046;-73
2021/12/06 09:02:29;;;;;;;190.65;89.10;;;3.00;99.90;;;;;;4990044;28;20046;-73
2021/12/06 09:04:59;;;;;;;;;;;3.10;99.90;;;;;;4968358;28;20121;-73
2021/12/06 09:07:25;;;;;;;76.38;29.45;;;4.00;99.90;;;;;;4967731;28;20323;-73
2021/12/06 09:09:55;;;;;;;;;;;3.10;99.90;;;;;;4993026;28;20135;-74
2021/12/06 09:12:25;;;;;;;50.42;19.42;;;3.20;99.90;;;;;;4967894;28;20326;-74
2021/12/06 09:14:53;;;;;;;166.05;60.03;;;3.30;99.90;;;;;;4999824;28;20046;-74
2021/12/06 09:17:19;;;;;;;91.43;36.45;;;3.20;99.90;;;;;;4966727;28;20057;-73
2021/12/06 09:19:45;;;;;;;;;;;3.20;99.90;;;;;;4967149;28;20043;-73
2021/12/06 09:22:11;;;;;;;39.35;16.88;;;3.20;99.90;;;;;;4998412;28;19944;-73
2021/12/06 09:24:37;;;;;;;78.75;34.65;;;3.20;99.90;;;;;;4966284;28;20038;-73
2021/12/06 09:27:03;;;;;;;;;;;3.20;99.90;;;;;;4963921;28;20057;-73
2021/12/06 09:29:32;;;;;;;46.67;22.13;;;3.30;99.90;;;;;;4966882;28;20275;-73
2021/12/06 09:31:59;;;;;;;38.55;16.42;;;3.40;99.90;;;;;;4967595;28;20050;-73
2021/12/06 09:34:27;;;;;;;40.03;16.52;;;3.30;99.90;;;;;;4963842;28;20049;-73
2021/12/06 09:36:53;;;;;;;43.97;18.10;;;3.30;99.90;;;;;;4991808;28;20046;-73
2021/12/06 09:39:21;;;;;;;48.83;15.07;;;3.30;99.90;;;;;;4996528;28;20038;-74
2021/12/06 09:41:47;;;;;;;37.85;14.68;;;3.30;99.90;;;;;;4970685;28;20564;-73
2021/12/06 09:44:14;;;;;;;;;;;3.40;99.90;;;;;;4965567;28;20038;-74
2021/12/06 09:46:42;;;;;;;52.85;18.05;;;3.30;99.90;;;;;;4997797;28;20437;-73
2021/12/06 09:49:14;;;;;;;44.58;18.20;;;3.30;99.90;;;;;;4967232;28;20065;-73
2021/12/06 09:51:44;;;;;;;57.08;21.23;;;3.30;99.90;;;;;;4977982;28;20122;-74
2021/12/06 09:54:12;;;;;;;87.57;37.80;;;3.30;99.90;;;;;;4963151;28;20399;-73
2021/12/06 09:56:44;;;;;;;102.85;44.67;;;3.30;99.90;;;;;;4964677;28;20399;-74
2021/12/06 09:59:14;;;;;;;57.20;23.85;;;3.40;99.90;;;;;;4981857;28;20105;-74
2021/12/06 10:01:44;;;;;;;42.22;17.77;;;3.40;99.90;;;;;;4968240;28;20054;-73
2021/12/06 10:04:12;;;;;;;48.20;18.98;;;3.50;99.90;;;;;;4999530;28;20058;-73
2021/12/06 10:06:37;;;;;;;59.72;23.35;;;3.50;99.90;;;;;;4970231;28;20050;-74
2021/12/06 10:09:05;;;;;;;;;;;3.40;99.90;;;;;;4967545;28;20364;-73
2021/12/06 10:11:34;;;;;;;44.08;16.90;;;3.40;99.90;;;;;;4964512;28;19957;-73
2021/12/06 10:14:00;;;;;;;58.35;22.33;;;4.30;99.90;;;;;;4965073;28;20074;-73
2021/12/06 10:16:26;;;;;;;56.28;19.88;;;3.40;99.90;;;;;;4965830;28;20042;-73
2021/12/06 10:18:52;;;;;;;;;;;3.50;99.90;;;;;;4992257;28;20389;-74
2021/12/06 10:21:24;;;;;;;49.35;20.25;;;3.50;99.90;;;;;;4991753;28;20401;-73
2021/12/06 10:23:50;;;;;;;49.35;19.83;;;3.60;99.90;;;;;;4963497;28;20562;-74
2021/12/06 10:26:24;;;;;;;46.78;19.00;;;3.60;99.90;;;;;;4967636;28;20097;-74
2021/12/06 10:29:04;;;;;;;58.20;23.35;;;3.70;99.90;;;;;;4970414;28;20434;-73
2021/12/06 10:31:31;;;;;;;44.58;16.33;;;3.70;99.90;;;;;;4991486;28;20068;-73
2021/12/06 10:33:56;;;;;;;55.13;23.40;;;3.60;99.90;;;;;;4995804;28;20057;-74
2021/12/06 10:36:23;;;;;;;;;;;3.70;99.90;;;;;;4977061;28;20042;-74
2021/12/06 10:38:53;;;;;;;42.47;17.77;;;3.60;99.90;;;;;;4966257;28;19932;-74
2021/12/06 10:41:43;;;;;;;37.15;16.77;;;3.60;99.90;;;;;;4967473;28;20128;-73
2021/12/06 10:44:13;;;;;;;45.53;19.15;;;3.80;99.90;;;;;;4995110;28;20117;-73
2021/12/06 10:46:49;;;;;;;45.53;19.60;;;3.70;99.90;;;;;;4968284;28;20050;-73
2021/12/06 10:49:19;;;;;;;37.50;17.85;;;3.70;99.90;;;;;;5000438;28;20076;-73
2021/12/06 10:51:47;;;;;;;38.25;14.57;;;3.80;99.90;;;;;;4986181;28;20119;-74
2021/12/06 10:54:21;;;;;;;42.50;17.42;;;3.80;99.90;;;;;;4994778;28;20042;-73
2021/12/06 10:56:51;;;;;;;57.92;23.25;;;3.80;99.90;;;;;;4970358;28;20477;-73
2021/12/06 10:59:19;;;;;;;501.27;248.95;;;3.80;99.90;;;;;;5002614;28;20054;-73
2021/12/06 11:01:46;;;;;;;196.73;84.90;;;3.70;99.90;;;;;;4972418;28;20050;-72
2021/12/06 11:04:16;;;;;;;164.07;80.55;;;3.50;99.90;;;;;;5001350;28;20527;-72
2021/12/06 11:06:51;;;;;;;59.70;27.55;;;3.60;99.90;;;;;;4991267;28;20038;-72
2021/12/06 11:09:28;;;;;;;42.80;21.92;;;3.70;99.90;;;;;;4965255;28;20069;-73
2021/12/06 11:11:58;;;;;;;42.35;18.42;;;3.70;99.90;;;;;;4984511;28;20074;-73
2021/12/06 11:14:37;;;;;;;40.03;17.92;;;3.50;99.90;;;;;;4968062;28;20574;-73
2021/12/06 11:17:18;;;;;;;49.72;20.35;;;3.60;99.90;;;;;;4966290;28;20133;-73
2021/12/06 11:19:44;;;;;;;37.90;17.15;;;3.40;99.90;;;;;;4967088;28;20058;-73
2021/12/06 11:22:16;;;;;;;;;;;3.40;99.90;;;;;;4998801;28;20122;-74
2021/12/06 11:24:48;;;;;;;36.53;15.20;;;3.40;99.90;;;;;;4999130;28;19922;-72
2021/12/06 11:27:23;;;;;;;40.00;15.73;;;3.40;99.90;;;;;;4967968;28;20121;-73
2021/12/06 11:29:54;;;;;;;36.95;15.43;;;3.60;99.90;;;;;;4967511;28;20054;-73
2021/12/06 11:32:33;;;;;;;35.95;16.33;;;3.80;99.90;;;;;;4965377;28;20046;-74
2021/12/06 11:35:14;;;;;;;44.70;17.27;;;3.50;99.90;;;;;;4965986;28;20057;-73
2021/12/06 11:37:44;;;;;;;181.18;73.68;;;3.40;99.90;;;;;;4966850;28;20054;-74
2021/12/06 11:40:29;;;;;;;580.83;248.18;;;3.50;99.90;;;;;;4963194;28;20047;-75
2021/12/06 11:43:10;;;;;;;672.25;280.98;;;3.50;99.90;;;;;;4965432;28;20046;-75
2021/12/06 11:45:40;;;;;;;610.35;219.80;;;3.40;99.90;;;;;;4972453;28;20042;-75
2021/12/06 11:48:09;;;;;;;245.60;60.53;;;3.40;99.90;;;;;;4965655;28;20425;-75
2021/12/06 11:50:42;;;;;;;929.50;271.67;;;3.30;99.90;;;;;;4998801;28;20077;-75
2021/12/06 11:53:08;;;;;;;512.00;213.00;;;3.40;99.90;;;;;;4979100;28;20047;-75
2021/12/06 11:55:36;;;;;;;308.95;122.85;;;3.50;99.90;;;;;;4992522;28;20367;-76
2021/12/06 11:58:03;;;;;;;52.90;24.77;;;3.40;99.90;;;;;;4992126;28;20046;-76
2021/12/06 12:00:30;;;;;;;42.47;17.55;;;3.40;99.90;;;;;;4957330;28;1031130;-73
2021/12/06 12:03:00;;;;;;;41.55;17.67;;;3.40;99.90;;;;;;4994401;28;20061;-74
2021/12/06 12:05:28;;;;;;;44.63;17.05;;;3.30;99.90;;;;;;4997747;28;20038;-74
2021/12/06 12:08:13;;;;;;;49.85;19.83;;;3.30;99.90;;;;;;4985740;28;20603;-73
2021/12/06 12:10:50;;;;;;;45.60;17.25;;;3.30;99.90;;;;;;4967589;28;20058;-74
2021/12/06 12:13:26;;;;;;;44.72;17.38;;;3.40;99.90;;;;;;4970095;28;20070;-73
2021/12/06 12:15:55;;;;;;;40.78;19.42;;;3.40;99.90;;;;;;4983195;28;20137;-73
2021/12/06 12:18:21;;;;;;;43.25;17.35;;;3.40;99.90;;;;;;4965289;28;20747;-73
2021/12/06 12:20:48;;;;;;;340.77;126.25;;;3.40;99.90;;;;;;4967048;28;20487;-74
2021/12/06 12:23:14;;;;;;;115.32;63.70;;;3.30;99.90;;;;;;4969314;28;20387;-74
2021/12/06 12:25:52;;;;;;;337.55;146.85;;;3.30;99.90;;;;;;4968165;28;20053;-74
2021/12/06 12:28:30;;;;;;;184.00;76.05;;;3.40;99.90;;;;;;4992585;28;20046;-74
2021/12/06 12:30:59;;;;;;;235.73;113.78;;;3.40;99.90;;;;;;4993495;28;20125;-74
2021/12/06 12:33:26;;;;;;;165.15;91.18;;;3.50;99.90;;;;;;4967903;28;20046;-74
2021/12/06 12:35:58;;;;;;;82.88;44.92;;;3.50;99.90;;;;;;4997362;28;20046;-74
2021/12/06 12:38:27;;;;;;;48.03;18.95;;;3.50;99.90;;;;;;4993398;28;20121;-74
2021/12/06 12:41:08;;;;;;;41.45;18.92;;;3.50;99.90;;;;;;5000460;28;20387;-74
2021/12/06 12:43:38;;;;;;;44.85;19.05;;;3.60;99.90;;;;;;4967416;28;20046;-75
2021/12/06 12:46:09;;;;;;;45.13;17.02;;;3.50;99.90;;;;;;4968041;28;20491;-74
2021/12/06 12:49:05;;;;;;;51.28;19.13;;;3.60;99.90;;;;;;4966958;28;20078;-74
2021/12/06 12:51:43;;;;;;;50.27;19.37;;;3.60;99.90;;;;;;4981168;28;20101;-73
2021/12/06 12:54:14;;;;;;;50.03;19.08;;;3.60;99.90;;;;;;4968977;28;20061;-74
2021/12/06 12:56:44;;;;;;;46.80;18.05;;;3.60;99.90;;;;;;4967343;28;20130;-74
2021/12/06 12:59:42;;;;;;;44.65;16.13;;;3.50;99.90;;;;;;4992098;28;20042;-74
2021/12/06 13:02:27;;;;;;;42.92;15.63;;;3.70;99.90;;;;;;4965669;28;20046;-73
2021/12/06 13:05:01;;;;;;;49.83;20.58;;;3.70;99.90;;;;;;4964272;28;20056;-73
2021/12/06 13:07:31;;;;;;;152.23;67.10;;;3.70;99.90;;;;;;4966419;28;20446;-74
2021/12/06 13:10:19;;;;;;;103.28;41.53;;;3.70;99.90;;;;;;4965218;28;20119;-74
2021/12/06 13:12:58;;;;;;;76.22;33.25;;;3.70;99.90;;;;;;4982141;28;20053;-74
2021/12/06 13:15:50;;;;;;;54.75;23.15;;;3.70;99.90;;;;;;4970547;28;20530;-74
2021/12/06 13:18:34;;;;;;;81.38;37.13;;;3.70;99.90;;;;;;4999661;28;20038;-74
2021/12/06 13:21:26;;;;;;;62.83;26.35;;;3.90;99.90;;;;;;4965126;28;20073;-73
2021/12/06 13:24:15;;;;;;;54.80;20.83;;;3.90;99.90;;;;;;4965668;28;20049;-74
2021/12/06 13:26:44;;;;;;;47.00;21.08;;;3.70;99.90;;;;;;4967150;28;20046;-75
2021/12/06 13:29:41;;;;;;;51.58;20.63;;;3.80;99.90;;;;;;4981295;28;20094;-75
2021/12/06 13:32:25;;;;;;;57.07;28.73;;;3.80;99.90;;;;;;4964117;28;20186;-75
2021/12/06 13:34:55;;;;;;;54.45;23.98;;;3.90;99.90;;;;;;4964808;28;20834;-75
2021/12/06 13:37:26;;;;;;;77.80;34.08;;;3.80;99.90;;;;;;4989791;28;20117;-75
2021/12/06 13:39:51;;;;;;;52.83;22.17;;;3.80;99.90;;;;;;4967522;28;20080;-75
2021/12/06 13:42:37;;;;;;;;;;;3.80;99.90;;;;;;4967479;28;20038;-75
2021/12/06 13:45:06;;;;;;;47.90;23.83;;;4.00;99.90;;;;;;4997489;28;19925;-75
2021/12/06 13:47:32;;;;;;;41.38;19.25;;;4.00;99.90;;;;;;4992271;28;20125;-75
2021/12/06 13:50:13;;;;;;;;;;;4.00;99.90;;;;;;4966748;28;20126;-75
2021/12/06 13:52:42;;;;;;;47.17;19.42;;;4.00;99.90;;;;;;4970457;28;19956;-75
2021/12/06 13:55:30;;;;;;;68.30;29.33;;;3.90;99.90;;;;;;4965049;28;20077;-74
2021/12/06 13:57:59;;;;;;;110.68;50.42;;;3.90;99.90;;;;;;4963131;28;20039;-73
2021/12/06 14:00:29;;;;;;;142.73;71.45;;;4.00;99.90;;;;;;4991214;28;20104;-74
2021/12/06 14:03:00;;;;;;;126.82;65.97;;;3.90;99.90;;;;;;4966767;28;20538;-74
2021/12/06 14:05:28;;;;;;;80.78;36.80;;;3.80;99.90;;;;;;4995654;28;20452;-75
2021/12/06 14:07:54;;;;;;;93.10;41.42;;;4.00;99.90;;;;;;4965316;28;20053;-75